sensor_id;sensor_type;location;lat;lon;timestamp;P1;durP1;ratioP1;P2;durP2;ratioP2
42018;SDS011;27703;51.980;5.848;2024-01-30T00:01:10;7.32;;;4.43;;
42018;SDS011;27703;51.980;5.848;2024-01-30T00:03:36;6.25;;;4.63;;
42018;SDS011;27703;51.980;5.848;2024-01-30T00:06:02;6.28;;;4.78;;
42018;SDS011;27703;51.980;5.848;2024-01-30T00:08:28;6.35;;;4.60;;
42018;SDS011;27703;51.980;5.848;2024-01-30T00:10:54;6.72;;;4.70;;
42018;SDS011;27703;51.980;5.848;2024-01-30T00:13:20;5.00;;;3.60;;
42018;SDS011;27703;51.980;5.848;2024-01-30T00:15:45;6.35;;;3.78;;
42018;SDS011;27703;51.980;5.848;2024-01-30T00:18:11;5.18;;;4.22;;
42018;SDS011;27703;51.980;5.848;2024-01-30T00:20:36;6.68;;;4.63;;
42018;SDS011;27703;51.980;5.848;2024-01-30T00:23:02;5.30;;;4.45;;
42018;SDS011;27703;51.980;5.848;2024-01-30T00:25:28;6.53;;;4.80;;
42018;SDS011;27703;51.980;5.848;2024-01-30T00:27:53;5.57;;;4.97;;
42018;SDS011;27703;51.980;5.848;2024-01-30T00:30:20;6.63;;;3.85;;
42018;SDS011;27703;51.980;5.848;2024-01-30T00:32:45;5.45;;;4.00;;
42018;SDS011;27703;51.980;5.848;2024-01-30T00:35:11;7.00;;;4.72;;
42018;SDS011;27703;51.980;5.848;2024-01-30T00:37:36;7.22;;;5.00;;
42018;SDS011;27703;51.980;5.848;2024-01-30T00:40:02;8.75;;;4.43;;
42018;SDS011;27703;51.980;5.848;2024-01-30T00:42:28;7.80;;;4.72;;
42018;SDS011;27703;51.980;5.848;2024-01-30T00:44:54;6.03;;;4.57;;
42018;SDS011;27703;51.980;5.848;2024-01-30T00:47:19;9.82;;;5.47;;
42018;SDS011;27703;51.980;5.848;2024-01-30T00:49:45;6.88;;;4.72;;
42018;SDS011;27703;51.980;5.848;2024-01-30T00:52:10;6.85;;;4.72;;
42018;SDS011;27703;51.980;5.848;2024-01-30T00:54:36;6.07;;;4.72;;
42018;SDS011;27703;51.980;5.848;2024-01-30T00:57:02;7.53;;;5.10;;
42018;SDS011;27703;51.980;5.848;2024-01-30T00:59:28;6.57;;;4.50;;
42018;SDS011;27703;51.980;5.848;2024-01-30T01:01:53;7.65;;;5.18;;
42018;SDS011;27703;51.980;5.848;2024-01-30T01:04:19;7.75;;;4.18;;
42018;SDS011;27703;51.980;5.848;2024-01-30T01:06:46;7.80;;;5.10;;
42018;SDS011;27703;51.980;5.848;2024-01-30T01:09:12;6.20;;;4.55;;
42018;SDS011;27703;51.980;5.848;2024-01-30T01:11:37;7.28;;;5.10;;
42018;SDS011;27703;51.980;5.848;2024-01-30T01:14:03;7.90;;;4.45;;
42018;SDS011;27703;51.980;5.848;2024-01-30T01:16:29;7.32;;;4.30;;
42018;SDS011;27703;51.980;5.848;2024-01-30T01:18:55;7.15;;;5.00;;
42018;SDS011;27703;51.980;5.848;2024-01-30T01:21:21;4.63;;;3.92;;
42018;SDS011;27703;51.980;5.848;2024-01-30T01:23:46;6.47;;;4.55;;
42018;SDS011;27703;51.980;5.848;2024-01-30T01:26:12;6.93;;;3.95;;
42018;SDS011;27703;51.980;5.848;2024-01-30T01:28:40;6.57;;;4.63;;
42018;SDS011;27703;51.980;5.848;2024-01-30T01:31:06;6.05;;;3.78;;
42018;SDS011;27703;51.980;5.848;2024-01-30T01:33:31;7.70;;;4.82;;
42018;SDS011;27703;51.980;5.848;2024-01-30T01:35:58;4.72;;;4.22;;
42018;SDS011;27703;51.980;5.848;2024-01-30T01:38:24;7.43;;;4.30;;
42018;SDS011;27703;51.980;5.848;2024-01-30T01:40:49;6.90;;;4.55;;
42018;SDS011;27703;51.980;5.848;2024-01-30T01:43:16;5.95;;;3.70;;
42018;SDS011;27703;51.980;5.848;2024-01-30T01:45:41;5.70;;;4.63;;
42018;SDS011;27703;51.980;5.848;2024-01-30T01:48:07;6.78;;;4.38;;
42018;SDS011;27703;51.980;5.848;2024-01-30T01:50:34;8.63;;;5.07;;
42018;SDS011;27703;51.980;5.848;2024-01-30T01:53:01;4.80;;;3.78;;
42018;SDS011;27703;51.980;5.848;2024-01-30T01:55:27;5.85;;;3.97;;
42018;SDS011;27703;51.980;5.848;2024-01-30T01:57:55;4.50;;;4.10;;
42018;SDS011;27703;51.980;5.848;2024-01-30T02:00:21;5.85;;;4.72;;
42018;SDS011;27703;51.980;5.848;2024-01-30T02:02:48;5.60;;;4.35;;
42018;SDS011;27703;51.980;5.848;2024-01-30T02:05:15;5.85;;;4.45;;
42018;SDS011;27703;51.980;5.848;2024-01-30T02:07:41;5.32;;;3.97;;
42018;SDS011;27703;51.980;5.848;2024-01-30T02:10:07;6.88;;;5.05;;
42018;SDS011;27703;51.980;5.848;2024-01-30T02:12:34;6.38;;;4.18;;
42018;SDS011;27703;51.980;5.848;2024-01-30T02:15:00;5.72;;;4.22;;
42018;SDS011;27703;51.980;5.848;2024-01-30T02:17:25;5.65;;;3.83;;
42018;SDS011;27703;51.980;5.848;2024-01-30T02:19:51;5.97;;;4.40;;
42018;SDS011;27703;51.980;5.848;2024-01-30T02:22:17;4.65;;;3.70;;
42018;SDS011;27703;51.980;5.848;2024-01-30T02:24:44;5.82;;;3.60;;
42018;SDS011;27703;51.980;5.848;2024-01-30T02:27:09;5.80;;;4.32;;
42018;SDS011;27703;51.980;5.848;2024-01-30T02:29:35;5.35;;;4.47;;
42018;SDS011;27703;51.980;5.848;2024-01-30T02:32:01;6.22;;;4.18;;
42018;SDS011;27703;51.980;5.848;2024-01-30T02:34:27;7.32;;;4.10;;
42018;SDS011;27703;51.980;5.848;2024-01-30T02:36:52;6.28;;;3.50;;
42018;SDS011;27703;51.980;5.848;2024-01-30T02:39:18;6.25;;;3.83;;
42018;SDS011;27703;51.980;5.848;2024-01-30T02:41:43;7.57;;;5.18;;
42018;SDS011;27703;51.980;5.848;2024-01-30T02:44:09;5.78;;;4.82;;
42018;SDS011;27703;51.980;5.848;2024-01-30T02:46:34;5.53;;;3.78;;
42018;SDS011;27703;51.980;5.848;2024-01-30T02:49:00;6.93;;;4.13;;
42018;SDS011;27703;51.980;5.848;2024-01-30T02:51:25;5.30;;;3.78;;
42018;SDS011;27703;51.980;5.848;2024-01-30T02:53:51;5.78;;;4.35;;
42018;SDS011;27703;51.980;5.848;2024-01-30T02:56:16;6.68;;;4.63;;
42018;SDS011;27703;51.980;5.848;2024-01-30T02:58:43;7.22;;;4.22;;
42018;SDS011;27703;51.980;5.848;2024-01-30T03:01:08;6.90;;;4.20;;
42018;SDS011;27703;51.980;5.848;2024-01-30T03:03:34;7.05;;;4.05;;
42018;SDS011;27703;51.980;5.848;2024-01-30T03:06:00;5.60;;;3.58;;
42018;SDS011;27703;51.980;5.848;2024-01-30T03:08:26;4.82;;;4.22;;
42018;SDS011;27703;51.980;5.848;2024-01-30T03:10:52;6.72;;;4.90;;
42018;SDS011;27703;51.980;5.848;2024-01-30T03:13:18;10.02;;;4.93;;
42018;SDS011;27703;51.980;5.848;2024-01-30T03:15:44;7.63;;;4.88;;
42018;SDS011;27703;51.980;5.848;2024-01-30T03:18:09;6.90;;;4.78;;
42018;SDS011;27703;51.980;5.848;2024-01-30T03:20:35;9.85;;;3.88;;
42018;SDS011;27703;51.980;5.848;2024-01-30T03:23:01;6.88;;;4.72;;
42018;SDS011;27703;51.980;5.848;2024-01-30T03:25:26;5.13;;;4.28;;
42018;SDS011;27703;51.980;5.848;2024-01-30T03:27:52;7.20;;;4.88;;
42018;SDS011;27703;51.980;5.848;2024-01-30T03:30:17;6.13;;;4.32;;
42018;SDS011;27703;51.980;5.848;2024-01-30T03:32:43;6.82;;;3.85;;
42018;SDS011;27703;51.980;5.848;2024-01-30T03:35:09;7.10;;;5.68;;
42018;SDS011;27703;51.980;5.848;2024-01-30T03:37:35;5.97;;;4.55;;
42018;SDS011;27703;51.980;5.848;2024-01-30T03:40:01;6.10;;;4.28;;
42018;SDS011;27703;51.980;5.848;2024-01-30T03:42:28;4.63;;;3.63;;
42018;SDS011;27703;51.980;5.848;2024-01-30T03:44:53;4.95;;;4.18;;
42018;SDS011;27703;51.980;5.848;2024-01-30T03:47:20;4.97;;;3.05;;
42018;SDS011;27703;51.980;5.848;2024-01-30T03:49:45;4.82;;;3.65;;
42018;SDS011;27703;51.980;5.848;2024-01-30T03:52:11;5.65;;;3.85;;
42018;SDS011;27703;51.980;5.848;2024-01-30T03:54:37;4.43;;;4.00;;
42018;SDS011;27703;51.980;5.848;2024-01-30T03:57:02;6.13;;;2.97;;
42018;SDS011;27703;51.980;5.848;2024-01-30T03:59:28;6.93;;;4.55;;
42018;SDS011;27703;51.980;5.848;2024-01-30T04:01:54;8.93;;;4.57;;
42018;SDS011;27703;51.980;5.848;2024-01-30T04:04:19;5.97;;;4.57;;
42018;SDS011;27703;51.980;5.848;2024-01-30T04:06:45;7.82;;;5.88;;
42018;SDS011;27703;51.980;5.848;2024-01-30T04:09:12;8.73;;;5.32;;
42018;SDS011;27703;51.980;5.848;2024-01-30T04:11:38;9.30;;;6.00;;
42018;SDS011;27703;51.980;5.848;2024-01-30T04:14:04;7.93;;;5.50;;
42018;SDS011;27703;51.980;5.848;2024-01-30T04:16:30;8.10;;;6.55;;
42018;SDS011;27703;51.980;5.848;2024-01-30T04:18:55;7.78;;;6.50;;
42018;SDS011;27703;51.980;5.848;2024-01-30T04:21:21;7.63;;;5.40;;
42018;SDS011;27703;51.980;5.848;2024-01-30T04:23:47;9.35;;;6.75;;
42018;SDS011;27703;51.980;5.848;2024-01-30T04:26:13;7.85;;;5.85;;
42018;SDS011;27703;51.980;5.848;2024-01-30T04:28:45;9.57;;;6.70;;
42018;SDS011;27703;51.980;5.848;2024-01-30T04:31:11;9.60;;;6.82;;
42018;SDS011;27703;51.980;5.848;2024-01-30T04:33:37;7.05;;;5.60;;
42018;SDS011;27703;51.980;5.848;2024-01-30T04:36:03;9.10;;;6.50;;
42018;SDS011;27703;51.980;5.848;2024-01-30T04:38:28;6.82;;;5.28;;
42018;SDS011;27703;51.980;5.848;2024-01-30T04:40:54;7.68;;;5.93;;
42018;SDS011;27703;51.980;5.848;2024-01-30T04:43:20;6.53;;;5.22;;
42018;SDS011;27703;51.980;5.848;2024-01-30T04:45:46;5.85;;;4.63;;
42018;SDS011;27703;51.980;5.848;2024-01-30T04:48:12;6.18;;;4.30;;
42018;SDS011;27703;51.980;5.848;2024-01-30T04:50:37;6.68;;;4.35;;
42018;SDS011;27703;51.980;5.848;2024-01-30T04:53:03;6.68;;;5.07;;
42018;SDS011;27703;51.980;5.848;2024-01-30T04:55:28;7.22;;;4.50;;
42018;SDS011;27703;51.980;5.848;2024-01-30T04:57:54;6.03;;;3.90;;
42018;SDS011;27703;51.980;5.848;2024-01-30T05:00:19;5.93;;;3.83;;
42018;SDS011;27703;51.980;5.848;2024-01-30T05:02:45;8.48;;;5.22;;
42018;SDS011;27703;51.980;5.848;2024-01-30T05:05:10;6.43;;;4.70;;
42018;SDS011;27703;51.980;5.848;2024-01-30T05:07:36;8.48;;;4.55;;
42018;SDS011;27703;51.980;5.848;2024-01-30T05:10:03;6.72;;;5.10;;
42018;SDS011;27703;51.980;5.848;2024-01-30T05:12:29;7.10;;;5.35;;
42018;SDS011;27703;51.980;5.848;2024-01-30T05:14:55;9.63;;;4.55;;
42018;SDS011;27703;51.980;5.848;2024-01-30T05:17:20;6.68;;;4.78;;
42018;SDS011;27703;51.980;5.848;2024-01-30T05:19:46;8.45;;;4.72;;
42018;SDS011;27703;51.980;5.848;2024-01-30T05:22:11;8.25;;;4.80;;
42018;SDS011;27703;51.980;5.848;2024-01-30T05:24:40;6.95;;;4.75;;
42018;SDS011;27703;51.980;5.848;2024-01-30T05:27:09;6.55;;;4.35;;
42018;SDS011;27703;51.980;5.848;2024-01-30T05:29:35;5.72;;;4.10;;
42018;SDS011;27703;51.980;5.848;2024-01-30T05:32:00;6.63;;;4.47;;
42018;SDS011;27703;51.980;5.848;2024-01-30T05:34:26;6.18;;;4.55;;
42018;SDS011;27703;51.980;5.848;2024-01-30T05:36:51;6.50;;;5.13;;
42018;SDS011;27703;51.980;5.848;2024-01-30T05:39:17;9.45;;;5.00;;
42018;SDS011;27703;51.980;5.848;2024-01-30T05:41:42;7.40;;;4.72;;
42018;SDS011;27703;51.980;5.848;2024-01-30T05:44:08;6.00;;;4.47;;
42018;SDS011;27703;51.980;5.848;2024-01-30T05:46:35;4.90;;;3.72;;
42018;SDS011;27703;51.980;5.848;2024-01-30T05:49:00;6.13;;;4.10;;
42018;SDS011;27703;51.980;5.848;2024-01-30T05:51:26;5.18;;;3.85;;
42018;SDS011;27703;51.980;5.848;2024-01-30T05:53:53;10.00;;;4.10;;
42018;SDS011;27703;51.980;5.848;2024-01-30T05:56:19;6.18;;;3.92;;
42018;SDS011;27703;51.980;5.848;2024-01-30T05:58:44;7.22;;;4.75;;
42018;SDS011;27703;51.980;5.848;2024-01-30T06:01:10;6.38;;;4.10;;
42018;SDS011;27703;51.980;5.848;2024-01-30T06:03:36;6.93;;;3.70;;
42018;SDS011;27703;51.980;5.848;2024-01-30T06:06:01;8.60;;;4.30;;
42018;SDS011;27703;51.980;5.848;2024-01-30T06:08:27;6.80;;;4.20;;
42018;SDS011;27703;51.980;5.848;2024-01-30T06:10:52;5.47;;;4.20;;
42018;SDS011;27703;51.980;5.848;2024-01-30T06:13:18;6.70;;;4.03;;
42018;SDS011;27703;51.980;5.848;2024-01-30T06:15:43;5.35;;;3.58;;
42018;SDS011;27703;51.980;5.848;2024-01-30T06:18:09;6.53;;;4.00;;
42018;SDS011;27703;51.980;5.848;2024-01-30T06:20:35;10.98;;;5.10;;
42018;SDS011;27703;51.980;5.848;2024-01-30T06:23:00;6.75;;;4.78;;
42018;SDS011;27703;51.980;5.848;2024-01-30T06:25:26;6.85;;;4.95;;
42018;SDS011;27703;51.980;5.848;2024-01-30T06:27:51;8.60;;;4.20;;
42018;SDS011;27703;51.980;5.848;2024-01-30T06:30:17;6.38;;;3.92;;
42018;SDS011;27703;51.980;5.848;2024-01-30T06:32:43;6.00;;;4.00;;
42018;SDS011;27703;51.980;5.848;2024-01-30T06:35:09;7.10;;;4.88;;
42018;SDS011;27703;51.980;5.848;2024-01-30T06:37:35;8.13;;;4.97;;
42018;SDS011;27703;51.980;5.848;2024-01-30T06:40:01;3.90;;;3.28;;
42018;SDS011;27703;51.980;5.848;2024-01-30T06:42:27;7.28;;;3.65;;
42018;SDS011;27703;51.980;5.848;2024-01-30T06:44:52;5.78;;;4.20;;
42018;SDS011;27703;51.980;5.848;2024-01-30T06:47:18;5.05;;;3.80;;
42018;SDS011;27703;51.980;5.848;2024-01-30T06:49:44;4.63;;;3.28;;
42018;SDS011;27703;51.980;5.848;2024-01-30T06:52:10;6.53;;;3.55;;
42018;SDS011;27703;51.980;5.848;2024-01-30T06:54:36;5.45;;;3.72;;
42018;SDS011;27703;51.980;5.848;2024-01-30T06:57:02;5.82;;;3.75;;
42018;SDS011;27703;51.980;5.848;2024-01-30T06:59:28;4.28;;;3.08;;
42018;SDS011;27703;51.980;5.848;2024-01-30T07:01:53;6.35;;;4.00;;
42018;SDS011;27703;51.980;5.848;2024-01-30T07:04:19;6.22;;;4.82;;
42018;SDS011;27703;51.980;5.848;2024-01-30T07:06:44;6.20;;;3.85;;
42018;SDS011;27703;51.980;5.848;2024-01-30T07:09:10;6.85;;;4.68;;
42018;SDS011;27703;51.980;5.848;2024-01-30T07:11:37;6.30;;;5.20;;
42018;SDS011;27703;51.980;5.848;2024-01-30T07:14:02;7.05;;;3.90;;
42018;SDS011;27703;51.980;5.848;2024-01-30T07:16:31;7.03;;;4.65;;
42018;SDS011;27703;51.980;5.848;2024-01-30T07:18:56;5.85;;;4.03;;
42018;SDS011;27703;51.980;5.848;2024-01-30T07:21:22;5.15;;;3.90;;
42018;SDS011;27703;51.980;5.848;2024-01-30T07:23:53;5.15;;;3.30;;
42018;SDS011;27703;51.980;5.848;2024-01-30T07:26:22;7.88;;;4.38;;
42018;SDS011;27703;51.980;5.848;2024-01-30T07:28:47;7.78;;;4.65;;
42018;SDS011;27703;51.980;5.848;2024-01-30T07:31:13;5.53;;;4.10;;
42018;SDS011;27703;51.980;5.848;2024-01-30T07:33:39;5.30;;;4.07;;
42018;SDS011;27703;51.980;5.848;2024-01-30T07:36:04;7.75;;;5.05;;
42018;SDS011;27703;51.980;5.848;2024-01-30T07:38:33;5.90;;;4.13;;
42018;SDS011;27703;51.980;5.848;2024-01-30T07:40:59;4.45;;;3.65;;
42018;SDS011;27703;51.980;5.848;2024-01-30T07:43:25;3.85;;;3.13;;
42018;SDS011;27703;51.980;5.848;2024-01-30T07:45:50;7.10;;;4.25;;
42018;SDS011;27703;51.980;5.848;2024-01-30T07:48:16;7.80;;;6.15;;
42018;SDS011;27703;51.980;5.848;2024-01-30T07:50:42;6.72;;;3.83;;
42018;SDS011;27703;51.980;5.848;2024-01-30T07:53:07;4.55;;;3.50;;
42018;SDS011;27703;51.980;5.848;2024-01-30T07:55:33;6.05;;;4.00;;
42018;SDS011;27703;51.980;5.848;2024-01-30T07:57:58;5.35;;;3.70;;
42018;SDS011;27703;51.980;5.848;2024-01-30T08:00:25;5.20;;;4.57;;
42018;SDS011;27703;51.980;5.848;2024-01-30T08:02:53;3.78;;;3.22;;
42018;SDS011;27703;51.980;5.848;2024-01-30T08:05:21;6.00;;;3.75;;
42018;SDS011;27703;51.980;5.848;2024-01-30T08:07:48;6.65;;;5.20;;
42018;SDS011;27703;51.980;5.848;2024-01-30T08:10:14;10.57;;;5.78;;
42018;SDS011;27703;51.980;5.848;2024-01-30T08:12:40;5.45;;;4.75;;
42018;SDS011;27703;51.980;5.848;2024-01-30T08:15:06;9.00;;;5.00;;
42018;SDS011;27703;51.980;5.848;2024-01-30T08:17:32;6.75;;;4.57;;
42018;SDS011;27703;51.980;5.848;2024-01-30T08:19:58;9.60;;;4.50;;
42018;SDS011;27703;51.980;5.848;2024-01-30T08:22:24;6.47;;;4.53;;
42018;SDS011;27703;51.980;5.848;2024-01-30T08:24:50;6.00;;;4.18;;
42018;SDS011;27703;51.980;5.848;2024-01-30T08:27:15;6.65;;;4.85;;
42018;SDS011;27703;51.980;5.848;2024-01-30T08:29:41;7.28;;;4.03;;
42018;SDS011;27703;51.980;5.848;2024-01-30T08:32:06;9.45;;;3.22;;
42018;SDS011;27703;51.980;5.848;2024-01-30T08:34:32;7.82;;;4.68;;
42018;SDS011;27703;51.980;5.848;2024-01-30T08:36:58;9.00;;;4.55;;
42018;SDS011;27703;51.980;5.848;2024-01-30T08:39:24;6.35;;;4.00;;
42018;SDS011;27703;51.980;5.848;2024-01-30T08:41:49;5.07;;;3.28;;
42018;SDS011;27703;51.980;5.848;2024-01-30T08:44:15;6.13;;;4.30;;
42018;SDS011;27703;51.980;5.848;2024-01-30T08:46:42;8.20;;;4.25;;
42018;SDS011;27703;51.980;5.848;2024-01-30T08:49:09;8.65;;;4.60;;
42018;SDS011;27703;51.980;5.848;2024-01-30T08:51:35;8.73;;;5.32;;
42018;SDS011;27703;51.980;5.848;2024-01-30T08:54:00;10.18;;;5.50;;
42018;SDS011;27703;51.980;5.848;2024-01-30T08:56:27;8.45;;;4.63;;
42018;SDS011;27703;51.980;5.848;2024-01-30T08:58:52;6.85;;;4.80;;
42018;SDS011;27703;51.980;5.848;2024-01-30T09:01:18;10.10;;;5.20;;
42018;SDS011;27703;51.980;5.848;2024-01-30T09:03:43;7.30;;;4.90;;
42018;SDS011;27703;51.980;5.848;2024-01-30T09:06:11;6.18;;;5.38;;
42018;SDS011;27703;51.980;5.848;2024-01-30T09:08:37;11.00;;;5.20;;
42018;SDS011;27703;51.980;5.848;2024-01-30T09:11:11;7.97;;;4.20;;
42018;SDS011;27703;51.980;5.848;2024-01-30T09:13:38;5.72;;;4.07;;
42018;SDS011;27703;51.980;5.848;2024-01-30T09:16:04;8.88;;;4.80;;
42018;SDS011;27703;51.980;5.848;2024-01-30T09:18:31;5.97;;;4.25;;
42018;SDS011;27703;51.980;5.848;2024-01-30T09:20:56;6.05;;;4.03;;
42018;SDS011;27703;51.980;5.848;2024-01-30T09:23:22;6.47;;;4.15;;
42018;SDS011;27703;51.980;5.848;2024-01-30T09:25:48;5.80;;;4.40;;
42018;SDS011;27703;51.980;5.848;2024-01-30T09:28:14;6.13;;;4.65;;
42018;SDS011;27703;51.980;5.848;2024-01-30T09:30:39;7.95;;;4.13;;
42018;SDS011;27703;51.980;5.848;2024-01-30T09:33:05;8.68;;;5.07;;
42018;SDS011;27703;51.980;5.848;2024-01-30T09:35:31;6.35;;;5.13;;
42018;SDS011;27703;51.980;5.848;2024-01-30T09:37:57;9.23;;;5.88;;
42018;SDS011;27703;51.980;5.848;2024-01-30T09:40:23;13.73;;;6.95;;
42018;SDS011;27703;51.980;5.848;2024-01-30T09:42:49;9.27;;;5.53;;
42018;SDS011;27703;51.980;5.848;2024-01-30T09:45:17;6.57;;;5.40;;
42018;SDS011;27703;51.980;5.848;2024-01-30T09:47:44;6.60;;;5.28;;
42018;SDS011;27703;51.980;5.848;2024-01-30T09:50:11;7.22;;;4.97;;
42018;SDS011;27703;51.980;5.848;2024-01-30T09:52:37;7.97;;;4.45;;
42018;SDS011;27703;51.980;5.848;2024-01-30T09:55:03;7.55;;;4.80;;
42018;SDS011;27703;51.980;5.848;2024-01-30T09:57:30;8.50;;;5.28;;
42018;SDS011;27703;51.980;5.848;2024-01-30T09:59:56;6.63;;;5.72;;
42018;SDS011;27703;51.980;5.848;2024-01-30T10:02:22;9.50;;;7.05;;
42018;SDS011;27703;51.980;5.848;2024-01-30T10:04:48;8.18;;;5.68;;
42018;SDS011;27703;51.980;5.848;2024-01-30T10:07:14;8.68;;;5.15;;
42018;SDS011;27703;51.980;5.848;2024-01-30T10:09:40;11.70;;;7.40;;
42018;SDS011;27703;51.980;5.848;2024-01-30T10:12:06;8.25;;;6.15;;
42018;SDS011;27703;51.980;5.848;2024-01-30T10:14:33;8.70;;;6.32;;
42018;SDS011;27703;51.980;5.848;2024-01-30T10:17:03;8.27;;;6.50;;
42018;SDS011;27703;51.980;5.848;2024-01-30T10:19:29;9.10;;;6.68;;
42018;SDS011;27703;51.980;5.848;2024-01-30T10:21:54;10.73;;;6.97;;
42018;SDS011;27703;51.980;5.848;2024-01-30T10:24:23;8.82;;;6.22;;
42018;SDS011;27703;51.980;5.848;2024-01-30T10:26:49;12.98;;;8.52;;
42018;SDS011;27703;51.980;5.848;2024-01-30T10:29:15;10.77;;;7.53;;
42018;SDS011;27703;51.980;5.848;2024-01-30T10:31:42;11.27;;;6.70;;
42018;SDS011;27703;51.980;5.848;2024-01-30T10:34:07;15.68;;;8.45;;
42018;SDS011;27703;51.980;5.848;2024-01-30T10:36:33;13.95;;;7.82;;
42018;SDS011;27703;51.980;5.848;2024-01-30T10:39:11;12.75;;;8.10;;
42018;SDS011;27703;51.980;5.848;2024-01-30T10:41:44;9.93;;;7.70;;
42018;SDS011;27703;51.980;5.848;2024-01-30T10:44:13;10.70;;;8.38;;
42018;SDS011;27703;51.980;5.848;2024-01-30T10:49:14;11.63;;;7.75;;
42018;SDS011;27703;51.980;5.848;2024-01-30T10:51:40;11.90;;;7.63;;
42018;SDS011;27703;51.980;5.848;2024-01-30T10:54:07;14.65;;;7.70;;
42018;SDS011;27703;51.980;5.848;2024-01-30T10:56:33;11.13;;;8.77;;
42018;SDS011;27703;51.980;5.848;2024-01-30T10:59:00;14.13;;;9.07;;
42018;SDS011;27703;51.980;5.848;2024-01-30T11:01:26;15.95;;;9.38;;
42018;SDS011;27703;51.980;5.848;2024-01-30T11:03:53;15.65;;;9.43;;
42018;SDS011;27703;51.980;5.848;2024-01-30T11:06:22;10.30;;;7.97;;
42018;SDS011;27703;51.980;5.848;2024-01-30T11:09:02;18.45;;;9.63;;
42018;SDS011;27703;51.980;5.848;2024-01-30T11:14:25;14.57;;;11.50;;
42018;SDS011;27703;51.980;5.848;2024-01-30T11:16:52;26.50;;;15.07;;
42018;SDS011;27703;51.980;5.848;2024-01-30T11:19:24;27.92;;;19.67;;
42018;SDS011;27703;51.980;5.848;2024-01-30T11:21:55;33.33;;;22.13;;
42018;SDS011;27703;51.980;5.848;2024-01-30T11:24:22;30.83;;;20.98;;
42018;SDS011;27703;51.980;5.848;2024-01-30T11:26:48;27.65;;;19.65;;
42018;SDS011;27703;51.980;5.848;2024-01-30T11:29:16;25.65;;;15.35;;
42018;SDS011;27703;51.980;5.848;2024-01-30T11:31:55;20.35;;;12.02;;
42018;SDS011;27703;51.980;5.848;2024-01-30T11:34:22;16.08;;;11.55;;
42018;SDS011;27703;51.980;5.848;2024-01-30T11:36:51;17.10;;;9.55;;
42018;SDS011;27703;51.980;5.848;2024-01-30T11:39:37;12.55;;;9.05;;
42018;SDS011;27703;51.980;5.848;2024-01-30T11:42:02;11.68;;;8.23;;
42018;SDS011;27703;51.980;5.848;2024-01-30T11:44:29;14.13;;;8.93;;
42018;SDS011;27703;51.980;5.848;2024-01-30T11:46:55;12.65;;;8.75;;
42018;SDS011;27703;51.980;5.848;2024-01-30T11:49:21;13.05;;;8.68;;
42018;SDS011;27703;51.980;5.848;2024-01-30T11:51:48;11.52;;;9.15;;
42018;SDS011;27703;51.980;5.848;2024-01-30T11:54:15;14.13;;;7.88;;
42018;SDS011;27703;51.980;5.848;2024-01-30T11:56:41;15.10;;;7.70;;
42018;SDS011;27703;51.980;5.848;2024-01-30T11:59:07;13.43;;;9.23;;
42018;SDS011;27703;51.980;5.848;2024-01-30T12:01:33;12.27;;;6.88;;
42018;SDS011;27703;51.980;5.848;2024-01-30T12:03:59;12.50;;;7.32;;
42018;SDS011;27703;51.980;5.848;2024-01-30T12:06:24;12.48;;;8.05;;
42018;SDS011;27703;51.980;5.848;2024-01-30T12:08:57;14.65;;;7.97;;
42018;SDS011;27703;51.980;5.848;2024-01-30T12:11:24;11.73;;;7.80;;
42018;SDS011;27703;51.980;5.848;2024-01-30T12:13:50;12.38;;;7.15;;
42018;SDS011;27703;51.980;5.848;2024-01-30T12:16:19;14.25;;;8.38;;
42018;SDS011;27703;51.980;5.848;2024-01-30T12:18:45;11.43;;;8.82;;
42018;SDS011;27703;51.980;5.848;2024-01-30T12:21:10;13.85;;;7.90;;
42018;SDS011;27703;51.980;5.848;2024-01-30T12:23:36;9.20;;;7.68;;
42018;SDS011;27703;51.980;5.848;2024-01-30T12:26:02;13.48;;;8.27;;
42018;SDS011;27703;51.980;5.848;2024-01-30T12:28:31;9.18;;;7.55;;
42018;SDS011;27703;51.980;5.848;2024-01-30T12:31:06;9.43;;;6.68;;
42018;SDS011;27703;51.980;5.848;2024-01-30T12:33:32;7.28;;;6.53;;
42018;SDS011;27703;51.980;5.848;2024-01-30T12:36:00;8.95;;;4.82;;
42018;SDS011;27703;51.980;5.848;2024-01-30T12:38:27;6.00;;;3.45;;
42018;SDS011;27703;51.980;5.848;2024-01-30T12:40:55;12.30;;;2.35;;
42018;SDS011;27703;51.980;5.848;2024-01-30T12:43:21;9.40;;;2.28;;
42018;SDS011;27703;51.980;5.848;2024-01-30T12:45:48;8.38;;;1.38;;
42018;SDS011;27703;51.980;5.848;2024-01-30T12:48:14;4.10;;;1.33;;
42018;SDS011;27703;51.980;5.848;2024-01-30T12:50:40;5.43;;;1.25;;
42018;SDS011;27703;51.980;5.848;2024-01-30T12:53:06;6.18;;;0.95;;
42018;SDS011;27703;51.980;5.848;2024-01-30T12:55:32;7.05;;;1.00;;
42018;SDS011;27703;51.980;5.848;2024-01-30T12:57:57;4.95;;;0.85;;
42018;SDS011;27703;51.980;5.848;2024-01-30T13:00:23;8.00;;;0.90;;
42018;SDS011;27703;51.980;5.848;2024-01-30T13:02:49;4.90;;;0.60;;
42018;SDS011;27703;51.980;5.848;2024-01-30T13:05:14;3.97;;;0.52;;
42018;SDS011;27703;51.980;5.848;2024-01-30T13:07:40;3.47;;;0.50;;
42018;SDS011;27703;51.980;5.848;2024-01-30T13:10:06;4.40;;;0.70;;
42018;SDS011;27703;51.980;5.848;2024-01-30T13:12:31;4.18;;;0.43;;
42018;SDS011;27703;51.980;5.848;2024-01-30T13:14:58;3.05;;;0.40;;
42018;SDS011;27703;51.980;5.848;2024-01-30T13:17:26;5.28;;;0.50;;
42018;SDS011;27703;51.980;5.848;2024-01-30T13:19:51;4.07;;;0.40;;
42018;SDS011;27703;51.980;5.848;2024-01-30T13:22:18;5.30;;;0.40;;
42018;SDS011;27703;51.980;5.848;2024-01-30T13:24:46;5.75;;;0.63;;
42018;SDS011;27703;51.980;5.848;2024-01-30T13:27:12;3.05;;;0.20;;
42018;SDS011;27703;51.980;5.848;2024-01-30T13:29:38;2.55;;;0.20;;
42018;SDS011;27703;51.980;5.848;2024-01-30T13:32:03;2.50;;;0.10;;
42018;SDS011;27703;51.980;5.848;2024-01-30T13:34:29;1.88;;;0.20;;
42018;SDS011;27703;51.980;5.848;2024-01-30T13:36:55;0.50;;;0.10;;
42018;SDS011;27703;51.980;5.848;2024-01-30T13:39:20;2.05;;;0.28;;
42018;SDS011;27703;51.980;5.848;2024-01-30T13:41:46;2.00;;;0.10;;
42018;SDS011;27703;51.980;5.848;2024-01-30T13:44:13;4.95;;;0.45;;
42018;SDS011;27703;51.980;5.848;2024-01-30T13:46:39;2.03;;;0.50;;
42018;SDS011;27703;51.980;5.848;2024-01-30T13:49:04;4.00;;;0.60;;
42018;SDS011;27703;51.980;5.848;2024-01-30T13:51:30;8.65;;;1.05;;
42018;SDS011;27703;51.980;5.848;2024-01-30T13:53:55;5.03;;;0.98;;
42018;SDS011;27703;51.980;5.848;2024-01-30T13:56:21;5.22;;;1.45;;
42018;SDS011;27703;51.980;5.848;2024-01-30T13:58:50;11.25;;;1.83;;
42018;SDS011;27703;51.980;5.848;2024-01-30T14:01:16;7.90;;;1.38;;
42018;SDS011;27703;51.980;5.848;2024-01-30T14:03:41;8.00;;;2.38;;
42018;SDS011;27703;51.980;5.848;2024-01-30T14:06:07;9.00;;;1.73;;
42018;SDS011;27703;51.980;5.848;2024-01-30T14:08:33;14.05;;;3.65;;
42018;SDS011;27703;51.980;5.848;2024-01-30T14:10:58;8.40;;;3.00;;
42018;SDS011;27703;51.980;5.848;2024-01-30T14:13:24;6.85;;;2.35;;
42018;SDS011;27703;51.980;5.848;2024-01-30T14:15:50;7.95;;;3.13;;
42018;SDS011;27703;51.980;5.848;2024-01-30T14:18:17;8.20;;;2.80;;
42018;SDS011;27703;51.980;5.848;2024-01-30T14:20:43;6.40;;;2.63;;
42018;SDS011;27703;51.980;5.848;2024-01-30T14:23:08;9.32;;;3.22;;
42018;SDS011;27703;51.980;5.848;2024-01-30T14:25:34;6.07;;;2.47;;
42018;SDS011;27703;51.980;5.848;2024-01-30T14:28:00;5.75;;;2.80;;
42018;SDS011;27703;51.980;5.848;2024-01-30T14:30:25;4.72;;;2.67;;
42018;SDS011;27703;51.980;5.848;2024-01-30T14:32:51;9.13;;;2.22;;
42018;SDS011;27703;51.980;5.848;2024-01-30T14:35:16;5.50;;;2.10;;
42018;SDS011;27703;51.980;5.848;2024-01-30T14:37:42;6.45;;;2.40;;
42018;SDS011;27703;51.980;5.848;2024-01-30T14:40:08;8.98;;;2.33;;
42018;SDS011;27703;51.980;5.848;2024-01-30T14:42:33;11.85;;;3.35;;
42018;SDS011;27703;51.980;5.848;2024-01-30T14:45:01;5.65;;;2.22;;